Time;durP1;ratioP1;P1;durP2;ratioP2;P2;SDS_P1;SDS_P2;PMS_P1;PMS_P2;Temp;Humidity;BMP_temperature;BMP_pressure;BME280_temperature;BME280_humidity;BME280_pressure;Samples;Min_cycle;Max_cycle;Signal;HPM_P1;HPM_P2
2023/07/07 00:02:02;;;;;;;4.18;2.92;;;23.70;99.90;;;;;;5035632;28;20044;-59
2023/07/07 00:04:28;;;;;;;3.00;2.70;;;23.70;99.90;;;;;;5036207;28;20163;-59
2023/07/07 00:06:54;;;;;;;4.85;2.80;;;23.80;99.90;;;;;;5036120;28;20029;-59
2023/07/07 00:09:19;;;;;;;4.97;3.00;;;23.70;99.90;;;;;;5036116;28;20471;-59
2023/07/07 00:11:46;;;;;;;4.60;3.03;;;23.60;99.90;;;;;;5036146;28;20108;-60
2023/07/07 00:14:12;;;;;;;5.10;2.70;;;23.60;99.90;;;;;;5035784;28;20017;-60
2023/07/07 00:16:38;;;;;;;5.28;2.70;;;23.50;99.90;;;;;;5036050;28;20033;-60
2023/07/07 00:19:09;;;;;;;4.50;3.15;;;23.60;99.90;;;;;;5035454;28;20049;-60
2023/07/07 00:21:40;;;;;;;2.55;2.28;;;23.60;99.90;;;;;;5035976;28;20032;-60
2023/07/07 00:24:07;;;;;;;3.80;2.70;;;23.50;99.90;;;;;;5035786;28;20029;-60
2023/07/07 00:26:34;;;;;;;4.47;2.88;;;23.50;99.90;;;;;;5035894;28;20017;-60
2023/07/07 00:28:59;;;;;;;5.22;2.97;;;23.50;99.90;;;;;;5034154;28;20018;-60
2023/07/07 00:31:26;;;;;;;6.47;2.88;;;23.40;99.90;;;;;;5035440;28;20210;-60
2023/07/07 00:33:52;;;;;;;4.15;2.65;;;23.40;99.90;;;;;;5035456;28;20036;-60
2023/07/07 00:36:18;;;;;;;3.03;2.70;;;23.30;99.90;;;;;;5035428;28;20025;-60
2023/07/07 00:38:44;;;;;;;5.43;2.70;;;23.40;99.90;;;;;;5035397;28;20021;-60
2023/07/07 00:41:10;;;;;;;5.43;3.20;;;23.30;99.90;;;;;;5021599;28;20018;-60
2023/07/07 00:43:37;;;;;;;3.45;2.65;;;23.30;99.90;;;;;;5035125;28;20402;-61
2023/07/07 00:46:03;;;;;;;3.45;2.72;;;23.30;99.90;;;;;;5034624;28;20026;-60
2023/07/07 00:48:34;;;;;;;4.32;2.70;;;23.20;99.90;;;;;;5035114;28;20076;-60
2023/07/07 00:51:14;;;;;;;3.97;2.55;;;23.10;99.90;;;;;;5035235;28;20018;-60
2023/07/07 00:53:42;;;;;;;4.47;3.13;;;23.20;99.90;;;;;;5035159;28;20342;-60
2023/07/07 00:56:19;;;;;;;6.10;2.92;;;23.10;99.90;;;;;;5027922;28;20421;-60
2023/07/07 00:58:45;;;;;;;6.15;3.13;;;23.10;99.90;;;;;;5014648;28;20030;-60
2023/07/07 01:01:17;;;;;;;2.97;2.28;;;23.10;99.90;;;;;;5015376;28;20172;-61
2023/07/07 01:03:56;;;;;;;3.53;2.95;;;23.10;99.90;;;;;;5015039;28;20022;-60
2023/07/07 01:06:27;;;;;;;3.92;2.58;;;23.10;99.90;;;;;;5013842;28;20022;-60
2023/07/07 01:09:02;;;;;;;4.05;2.97;;;23.10;99.90;;;;;;5014805;28;20172;-60
2023/07/07 01:11:30;;;;;;;2.95;2.47;;;23.10;99.90;;;;;;5013939;28;20036;-60
2023/07/07 01:13:57;;;;;;;4.75;2.50;;;23.10;99.90;;;;;;5014864;28;20140;-60
2023/07/07 01:16:33;;;;;;;4.30;2.60;;;23.10;99.90;;;;;;5010799;28;20031;-60
2023/07/07 01:19:04;;;;;;;5.25;3.35;;;23.00;99.90;;;;;;5005188;28;20120;-60
2023/07/07 01:21:41;;;;;;;4.85;2.78;;;23.00;99.90;;;;;;5013747;28;20045;-60
2023/07/07 01:24:10;;;;;;;4.97;3.00;;;23.00;99.90;;;;;;5013705;28;20022;-60
2023/07/07 01:26:58;;;;;;;7.03;2.78;;;23.00;99.90;;;;;;5013354;28;20022;-60
2023/07/07 01:29:51;;;;;;;2.72;2.40;;;23.00;99.90;;;;;;5013481;28;20037;-60
2023/07/07 01:32:21;;;;;;;5.32;2.90;;;22.90;99.90;;;;;;5002690;28;20096;-60
2023/07/07 01:34:47;;;;;;;4.07;2.97;;;22.90;99.90;;;;;;5013957;28;20395;-60
2023/07/07 01:37:13;;;;;;;4.40;2.65;;;22.90;99.90;;;;;;5014214;28;20061;-60
2023/07/07 01:39:41;;;;;;;4.05;2.55;;;22.90;99.90;;;;;;5013833;28;20038;-60
2023/07/07 01:42:21;;;;;;;7.25;3.85;;;22.90;99.90;;;;;;5014909;28;20021;-61
2023/07/07 01:45:24;;;;;;;4.97;2.65;;;22.90;99.90;;;;;;5014692;28;20112;-60
2023/07/07 01:48:24;;;;;;;3.55;2.90;;;22.90;99.90;;;;;;5005779;28;20037;-60
2023/07/07 01:50:52;;;;;;;7.75;3.30;;;22.80;99.90;;;;;;5020786;28;20510;-60
2023/07/07 01:53:24;;;;;;;7.60;3.38;;;22.80;99.90;;;;;;5014329;28;20494;-60
2023/07/07 01:55:56;;;;;;;5.07;2.72;;;22.80;99.90;;;;;;5014467;28;20108;-60
2023/07/07 01:58:22;;;;;;;3.55;2.85;;;22.70;99.90;;;;;;5032374;28;20041;-60
2023/07/07 02:00:52;;;;;;;5.43;2.90;;;22.70;99.90;;;;;;5033748;28;20064;-60
2023/07/07 02:03:19;;;;;;;6.00;3.10;;;22.80;99.90;;;;;;5033579;28;20379;-60
2023/07/07 02:05:46;;;;;;;6.38;3.15;;;22.70;99.90;;;;;;5033682;28;20025;-61
2023/07/07 02:08:11;;;;;;;6.13;3.30;;;22.70;99.90;;;;;;5033563;28;20013;-60
2023/07/07 02:10:37;;;;;;;5.03;3.15;;;22.80;99.90;;;;;;5033731;28;20533;-60
2023/07/07 02:13:03;;;;;;;6.55;3.55;;;22.70;99.90;;;;;;5033579;28;20033;-60
2023/07/07 02:15:28;;;;;;;4.40;2.72;;;22.70;99.90;;;;;;5033700;28;20037;-60
2023/07/07 02:17:54;;;;;;;4.60;3.25;;;22.60;1.00;;;;;;5033316;28;20028;-60
2023/07/07 02:20:20;;;;;;;4.95;3.25;;;22.60;1.00;;;;;;5032900;28;20505;-60
2023/07/07 02:22:46;;;;;;;3.30;2.50;;;22.50;1.00;;;;;;5033237;28;20311;-60
2023/07/07 02:25:12;;;;;;;4.90;3.00;;;22.60;1.00;;;;;;5032316;28;20024;-60
2023/07/07 02:27:37;;;;;;;7.95;2.92;;;22.70;1.00;;;;;;5031943;28;20021;-60
2023/07/07 02:30:04;;;;;;;4.93;3.08;;;22.70;99.90;;;;;;5033557;28;20060;-60
2023/07/07 02:32:29;;;;;;;6.60;3.17;;;22.60;1.00;;;;;;5033038;28;20037;-60
2023/07/07 02:34:57;;;;;;;4.72;3.10;;;22.60;1.00;;;;;;5033280;28;20501;-60
2023/07/07 02:37:23;;;;;;;6.00;2.60;;;22.60;1.00;;;;;;5029321;28;20022;-60
2023/07/07 02:39:49;;;;;;;7.57;2.97;;;22.60;1.00;;;;;;5033005;28;20052;-60
2023/07/07 02:42:15;;;;;;;3.75;3.00;;;22.60;1.00;;;;;;5033019;28;20364;-60
2023/07/07 02:44:41;;;;;;;5.20;3.13;;;22.50;1.00;;;;;;5033120;28;20474;-61
2023/07/07 02:47:07;;;;;;;5.20;3.42;;;22.60;1.00;;;;;;5032877;28;20036;-60
2023/07/07 02:49:33;;;;;;;3.67;2.53;;;22.50;1.00;;;;;;5033084;28;20021;-60
2023/07/07 02:51:59;;;;;;;5.93;3.03;;;22.50;99.90;;;;;;5032793;28;20115;-60
2023/07/07 02:54:25;;;;;;;5.70;2.85;;;22.50;99.90;;;;;;5032946;28;20071;-60
2023/07/07 02:56:51;;;;;;;4.30;2.88;;;22.50;99.90;;;;;;5019017;28;20053;-61
2023/07/07 02:59:16;;;;;;;4.60;3.03;;;22.40;99.90;;;;;;5032702;28;20068;-60
2023/07/07 03:01:43;;;;;;;4.43;2.90;;;22.40;99.90;;;;;;5032833;28;20113;-60
2023/07/07 03:04:10;;;;;;;6.60;2.92;;;22.40;99.90;;;;;;5032606;28;20120;-61
2023/07/07 03:06:36;;;;;;;7.22;3.00;;;22.30;99.90;;;;;;5031960;28;20033;-60
2023/07/07 03:09:02;;;;;;;4.57;3.42;;;22.30;99.90;;;;;;5032524;28;20017;-60
2023/07/07 03:11:28;;;;;;;4.95;3.20;;;22.40;99.90;;;;;;5032138;28;20386;-61
2023/07/07 03:13:53;;;;;;;4.93;3.40;;;22.30;99.90;;;;;;5032658;28;20087;-60
2023/07/07 03:16:30;;;;;;;5.45;3.25;;;22.30;99.90;;;;;;5032514;28;20432;-60
2023/07/07 03:19:02;;;;;;;4.68;3.38;;;22.30;99.90;;;;;;5032551;28;20144;-60
2023/07/07 03:21:28;;;;;;;5.20;3.08;;;22.30;1.00;;;;;;5019436;28;20037;-60
2023/07/07 03:23:55;;;;;;;4.57;2.78;;;22.30;99.90;;;;;;5032929;28;20040;-60
2023/07/07 03:26:22;;;;;;;6.20;3.00;;;22.30;1.00;;;;;;5018815;28;20034;-60
2023/07/07 03:28:48;;;;;;;4.85;3.15;;;22.20;1.00;;;;;;5031348;28;20460;-60
2023/07/07 03:31:17;;;;;;;5.28;3.42;;;22.20;1.00;;;;;;5034741;28;20053;-60
2023/07/07 03:33:44;;;;;;;5.20;3.20;;;22.20;1.00;;;;;;5036476;28;20072;-60
2023/07/07 03:36:11;;;;;;;4.63;3.00;;;22.10;1.00;;;;;;5034983;28;20104;-61
2023/07/07 03:38:38;;;;;;;8.63;3.60;;;22.10;1.00;;;;;;5026458;28;20037;-61
2023/07/07 03:41:04;;;;;;;3.28;2.70;;;22.10;1.00;;;;;;5036594;28;20026;-60
2023/07/07 03:43:34;;;;;;;3.58;2.80;;;22.10;1.00;;;;;;5036457;28;20034;-60
2023/07/07 03:46:03;;;;;;;5.13;3.15;;;22.10;1.00;;;;;;5036615;28;20029;-60
2023/07/07 03:48:29;;;;;;;5.68;2.67;;;22.10;1.00;;;;;;5036284;28;20104;-60
2023/07/07 03:51:00;;;;;;;5.20;3.35;;;22.10;1.00;;;;;;5036307;28;20080;-60
2023/07/07 03:53:27;;;;;;;6.50;2.85;;;22.00;1.00;;;;;;5033934;28;20030;-60
2023/07/07 03:55:53;;;;;;;5.55;3.20;;;22.10;1.00;;;;;;5036521;28;20049;-60
2023/07/07 03:58:19;;;;;;;5.45;3.13;;;22.00;1.00;;;;;;5032538;28;20107;-60
2023/07/07 04:00:46;;;;;;;3.10;2.38;;;22.10;1.00;;;;;;5036370;28;20033;-60
2023/07/07 04:03:12;;;;;;;7.38;3.35;;;22.20;1.00;;;;;;5035823;28;20104;-60
2023/07/07 04:05:45;;;;;;;4.25;2.90;;;22.10;1.00;;;;;;5035868;28;20394;-60
2023/07/07 04:08:11;;;;;;;4.20;2.70;;;22.10;1.00;;;;;;5036242;28;20026;-60
2023/07/07 04:10:38;;;;;;;3.40;3.08;;;22.20;1.00;;;;;;5034859;28;20382;-60
2023/07/07 04:13:04;;;;;;;2.97;2.58;;;22.20;1.00;;;;;;5035856;28;20359;-60
2023/07/07 04:15:30;;;;;;;5.18;2.80;;;22.20;1.00;;;;;;5035957;28;20079;-60
2023/07/07 04:17:56;;;;;;;5.50;3.25;;;22.20;1.00;;;;;;5035553;28;20418;-60
2023/07/07 04:20:23;;;;;;;4.78;3.28;;;22.20;1.00;;;;;;5035986;28;20030;-60
2023/07/07 04:22:48;;;;;;;3.15;2.75;;;22.20;1.00;;;;;;5035484;28;20028;-60
2023/07/07 04:25:16;;;;;;;5.40;2.85;;;22.30;1.00;;;;;;5035857;28;20379;-60
2023/07/07 04:27:43;;;;;;;5.30;2.78;;;22.20;1.00;;;;;;5035543;28;20029;-60
2023/07/07 04:30:10;;;;;;;5.88;3.47;;;22.20;1.00;;;;;;5035770;28;20052;-60
2023/07/07 04:32:39;;;;;;;4.18;3.65;;;22.30;1.00;;;;;;5035252;28;20017;-61
2023/07/07 04:35:05;;;;;;;5.85;4.03;;;22.30;1.00;;;;;;5035753;28;20040;-60
2023/07/07 04:37:31;;;;;;;5.15;4.20;;;22.30;1.00;;;;;;5035672;28;20455;-60
2023/07/07 04:39:57;;;;;;;6.78;4.78;;;22.30;1.00;;;;;;5035103;28;20045;-60
2023/07/07 04:42:23;;;;;;;7.43;5.10;;;22.30;1.00;;;;;;5034683;28;20387;-61
2023/07/07 04:44:49;;;;;;;7.55;4.82;;;22.40;1.00;;;;;;5035105;28;20057;-60
2023/07/07 04:47:15;;;;;;;4.47;3.45;;;22.40;1.00;;;;;;5035656;28;20028;-60
2023/07/07 04:49:40;;;;;;;5.47;3.90;;;22.40;1.00;;;;;;5035153;28;20430;-60
2023/07/07 04:52:06;;;;;;;6.53;4.70;;;22.30;1.00;;;;;;5035642;28;20117;-60
2023/07/07 04:54:32;;;;;;;7.10;4.25;;;22.40;1.00;;;;;;5035064;28;20068;-60
2023/07/07 04:56:57;;;;;;;7.47;4.60;;;22.40;1.00;;;;;;5035060;28;20045;-60
2023/07/07 04:59:23;;;;;;;5.95;3.97;;;22.30;1.00;;;;;;5032622;28;20033;-60
2023/07/07 05:01:49;;;;;;;5.45;3.75;;;22.40;1.00;;;;;;5032227;28;20026;-61
2023/07/07 05:04:15;;;;;;;8.82;4.55;;;22.40;1.00;;;;;;5030517;28;20112;-60
2023/07/07 05:06:41;;;;;;;6.13;4.07;;;22.40;1.00;;;;;;5035172;28;20057;-60
2023/07/07 05:09:08;;;;;;;7.72;4.30;;;22.40;1.00;;;;;;5034056;28;20064;-60
2023/07/07 05:11:35;;;;;;;7.30;4.03;;;22.40;1.00;;;;;;5034355;28;20040;-60
2023/07/07 05:14:02;;;;;;;7.05;4.45;;;22.30;1.00;;;;;;5034439;28;20036;-60
2023/07/07 05:16:33;;;;;;;5.07;3.97;;;22.40;1.00;;;;;;5034728;28;20026;-60
2023/07/07 05:19:00;;;;;;;5.78;4.15;;;22.40;1.00;;;;;;5034480;28;20033;-60
2023/07/07 05:21:26;;;;;;;5.20;4.38;;;22.40;1.00;;;;;;5034813;28;20089;-61
2023/07/07 05:23:53;;;;;;;6.68;3.88;;;22.40;1.00;;;;;;5034895;28;20056;-61
2023/07/07 05:26:23;;;;;;;6.03;3.90;;;22.40;1.00;;;;;;5034734;28;20160;-60
2023/07/07 05:28:51;;;;;;;7.57;4.20;;;22.40;1.00;;;;;;5034631;28;20033;-60
2023/07/07 05:31:17;;;;;;;5.95;4.10;;;22.40;1.00;;;;;;5034073;28;20026;-60
2023/07/07 05:33:43;;;;;;;7.13;4.03;;;22.50;1.00;;;;;;5033057;28;20040;-60
2023/07/07 05:36:08;;;;;;;6.32;3.92;;;22.50;1.00;;;;;;5034556;28;20021;-61
2023/07/07 05:38:35;;;;;;;7.97;4.15;;;22.50;1.00;;;;;;5034368;28;20083;-61
2023/07/07 05:41:01;;;;;;;6.25;4.10;;;22.60;1.00;;;;;;5033096;28;20048;-63
2023/07/07 05:43:27;;;;;;;4.85;3.40;;;22.60;1.00;;;;;;5033906;28;20475;-60
2023/07/07 05:46:01;;;;;;;5.45;4.32;;;22.60;1.00;;;;;;5033286;28;20051;-60
2023/07/07 05:48:27;;;;;;;5.72;3.72;;;22.60;1.00;;;;;;5033963;28;20034;-59
2023/07/07 05:50:57;;;;;;;7.95;3.72;;;22.60;1.00;;;;;;5034231;28;20029;-60
2023/07/07 05:53:22;;;;;;;8.80;4.05;;;22.70;1.00;;;;;;5034187;28;20028;-59
2023/07/07 05:55:48;;;;;;;3.97;3.20;;;22.70;1.00;;;;;;5034106;28;20029;-62
2023/07/07 05:58:15;;;;;;;7.57;4.32;;;22.70;1.00;;;;;;5033602;28;20042;-62
2023/07/07 06:00:42;;;;;;;5.50;3.47;;;22.50;1.00;;;;;;5033979;28;20048;-61
2023/07/07 06:03:08;;;;;;;5.60;3.63;;;22.60;1.00;;;;;;5033406;28;20060;-60
2023/07/07 06:05:34;;;;;;;6.05;3.92;;;22.60;1.00;;;;;;5033869;28;20451;-60
2023/07/07 06:08:00;;;;;;;6.28;3.85;;;22.80;1.00;;;;;;5032635;28;20021;-61
2023/07/07 06:10:26;;;;;;;5.28;3.75;;;22.80;1.00;;;;;;5033897;28;20087;-61
2023/07/07 06:12:52;;;;;;;6.00;3.78;;;22.80;1.00;;;;;;5033491;28;20487;-52
2023/07/07 06:15:19;;;;;;;7.40;4.53;;;22.80;1.00;;;;;;5033760;28;20115;-53
2023/07/07 06:17:45;;;;;;;7.13;4.30;;;22.80;1.00;;;;;;5029123;28;20034;-59
2023/07/07 06:20:12;;;;;;;7.43;4.20;;;22.90;99.90;;;;;;5032694;28;20048;-60
2023/07/07 06:22:38;;;;;;;7.70;4.40;;;23.00;99.90;;;;;;5022861;28;20029;-59
2023/07/07 06:25:04;;;;;;;5.82;3.90;;;23.00;99.90;;;;;;5023546;28;20498;-60
2023/07/07 06:27:31;;;;;;;6.43;4.30;;;23.00;99.90;;;;;;5031728;28;20534;-59
2023/07/07 06:29:56;;;;;;;6.65;3.85;;;23.00;99.90;;;;;;5031991;28;20067;-60
2023/07/07 06:32:22;;;;;;;5.22;3.45;;;23.00;99.90;;;;;;5026144;28;20126;-62
2023/07/07 06:34:48;;;;;;;7.18;3.60;;;23.10;99.90;;;;;;5031657;28;20025;-62
2023/07/07 06:37:14;;;;;;;6.25;4.18;;;23.10;99.90;;;;;;5031400;28;20033;-62
2023/07/07 06:39:39;;;;;;;6.20;4.13;;;23.20;99.90;;;;;;5031423;28;20033;-62
2023/07/07 06:42:05;;;;;;;6.53;4.18;;;23.20;99.90;;;;;;5031139;28;20033;-60
2023/07/07 06:44:32;;;;;;;6.05;4.53;;;23.30;99.90;;;;;;5031183;28;20084;-60
2023/07/07 06:46:58;;;;;;;5.65;3.92;;;23.20;99.90;;;;;;5032991;28;20763;-59
2023/07/07 06:49:24;;;;;;;4.70;3.72;;;23.20;99.90;;;;;;5031832;28;20044;-59
2023/07/07 06:51:50;;;;;;;7.47;4.85;;;23.30;99.90;;;;;;5031238;28;20025;-59
2023/07/07 06:54:15;;;;;;;8.05;4.47;;;23.30;99.90;;;;;;5032785;28;20083;-55
2023/07/07 06:56:41;;;;;;;7.72;5.13;;;23.40;99.90;;;;;;5032837;28;20037;-52
2023/07/07 06:59:08;;;;;;;7.40;4.47;;;23.40;99.90;;;;;;5032217;28;20045;-56
2023/07/07 07:01:34;;;;;;;7.13;5.32;;;23.50;99.90;;;;;;5030714;28;20463;-53
2023/07/07 07:04:00;;;;;;;6.22;4.88;;;23.50;99.90;;;;;;5031078;28;20030;-59
2023/07/07 07:06:27;;;;;;;5.43;4.47;;;23.50;99.90;;;;;;5023647;28;20557;-62
2023/07/07 07:08:53;;;;;;;7.40;5.40;;;23.60;99.90;;;;;;5025576;28;20041;-61
2023/07/07 07:11:18;;;;;;;7.53;5.53;;;23.60;99.90;;;;;;5031182;28;20028;-54
2023/07/07 07:13:45;;;;;;;6.28;5.32;;;23.70;99.90;;;;;;5031713;28;20422;-54
2023/07/07 07:16:11;;;;;;;7.70;5.18;;;23.70;99.90;;;;;;5031014;28;20104;-50
2023/07/07 07:18:36;;;;;;;6.57;4.88;;;23.70;99.90;;;;;;5030310;28;20188;-50
2023/07/07 07:21:02;;;;;;;13.88;5.13;;;23.80;99.90;;;;;;5033051;28;20025;-56
2023/07/07 07:23:28;;;;;;;5.70;4.70;;;23.80;99.90;;;;;;5031953;28;20048;-62
2023/07/07 07:25:53;;;;;;;5.95;3.85;;;23.80;99.90;;;;;;5018969;28;20033;-62
2023/07/07 07:28:19;;;;;;;8.18;4.10;;;23.90;99.90;;;;;;5031771;28;20025;-62
2023/07/07 07:30:45;;;;;;;5.57;4.40;;;23.90;99.90;;;;;;5025046;28;20100;-61
2023/07/07 07:33:13;;;;;;;11.55;4.13;;;23.90;99.90;;;;;;5025764;28;20025;-63
2023/07/07 07:35:39;;;;;;;8.20;4.32;;;23.90;99.90;;;;;;5019113;28;20036;-62
2023/07/07 07:38:05;;;;;;;5.18;3.90;;;24.00;99.90;;;;;;5031723;28;20026;-62
2023/07/07 07:40:31;;;;;;;9.80;7.25;;;24.00;99.90;;;;;;5031076;28;20037;-61
2023/07/07 07:42:57;;;;;;;14.93;6.97;;;24.10;99.90;;;;;;5031405;28;20394;-61
2023/07/07 07:45:23;;;;;;;7.53;4.70;;;24.10;99.90;;;;;;5031400;28;20036;-61
2023/07/07 07:47:51;;;;;;;9.10;4.25;;;24.10;99.90;;;;;;5031855;28;20530;-61
2023/07/07 07:50:19;;;;;;;6.97;4.95;;;24.10;99.90;;;;;;5031237;28;20387;-65
2023/07/07 07:52:45;;;;;;;8.32;4.65;;;24.20;99.90;;;;;;5030465;28;20104;-63
2023/07/07 07:55:11;;;;;;;9.15;4.15;;;24.30;99.90;;;;;;5030905;28;20028;-64
2023/07/07 07:57:37;;;;;;;10.13;5.18;;;24.40;99.90;;;;;;5031174;28;20050;-66
2023/07/07 08:00:04;;;;;;;8.07;5.32;;;24.40;99.90;;;;;;5032536;28;20191;-66
2023/07/07 08:02:30;;;;;;;9.52;5.78;;;24.50;99.90;;;;;;5030513;28;20025;-66
2023/07/07 08:04:56;;;;;;;8.20;5.30;;;24.50;99.90;;;;;;5032359;28;20394;-63
2023/07/07 08:07:22;;;;;;;7.70;5.75;;;24.60;99.90;;;;;;5031121;28;20029;-66
2023/07/07 08:09:48;;;;;;;7.43;6.05;;;24.60;99.90;;;;;;5029312;28;20069;-63
2023/07/07 08:12:14;;;;;;;8.32;5.80;;;24.60;99.90;;;;;;5028555;28;20108;-63
2023/07/07 08:14:40;;;;;;;10.60;6.15;;;24.70;99.90;;;;;;5032113;28;20026;-63
2023/07/07 08:17:12;;;;;;;8.70;6.25;;;24.80;99.90;;;;;;5029953;28;20418;-64
2023/07/07 08:19:39;;;;;;;8.65;6.38;;;24.70;99.90;;;;;;5037022;28;20065;-64
2023/07/07 08:22:08;;;;;;;9.98;6.00;;;24.80;99.90;;;;;;5034222;28;20036;-66
2023/07/07 08:24:47;;;;;;;8.77;5.90;;;24.80;99.90;;;;;;5035386;28;20014;-66
2023/07/07 08:27:13;;;;;;;7.82;5.40;;;24.90;99.90;;;;;;5033169;28;20059;-66
2023/07/07 08:29:40;;;;;;;8.63;6.35;;;24.90;99.90;;;;;;5020949;28;20367;-65
2023/07/07 08:32:11;;;;;;;8.52;5.20;;;25.00;99.90;;;;;;5035746;28;20029;-66
2023/07/07 08:34:38;;;;;;;8.27;5.60;;;25.00;99.90;;;;;;5028559;28;20045;-65
2023/07/07 08:37:04;;;;;;;6.93;5.53;;;25.00;99.90;;;;;;5035494;28;20029;-66
2023/07/07 08:39:30;;;;;;;9.05;5.70;;;25.00;99.90;;;;;;5034605;28;20052;-66
2023/07/07 08:42:11;;;;;;;9.25;5.70;;;25.10;99.90;;;;;;5032173;28;20025;-67
2023/07/07 08:44:36;;;;;;;6.75;4.53;;;25.10;99.90;;;;;;5035581;28;20034;-66
2023/07/07 08:47:25;;;;;;;9.40;5.10;;;25.30;99.90;;;;;;5033224;28;20029;-65
2023/07/07 08:50:01;;;;;;;5.85;3.95;;;25.50;99.90;;;;;;5031788;28;20030;-65
2023/07/07 08:52:32;;;;;;;4.90;3.90;;;25.70;99.90;;;;;;5030273;28;20091;-66
2023/07/07 08:55:08;;;;;;;7.25;4.30;;;25.80;99.90;;;;;;5019986;28;20033;-66
2023/07/07 08:57:43;;;;;;;10.48;5.10;;;25.60;99.90;;;;;;5028050;28;20120;-62
2023/07/07 09:00:41;;;;;;;10.48;5.75;;;25.80;99.90;;;;;;5028425;28;20033;-62
2023/07/07 09:03:19;;;;;;;7.65;5.47;;;25.70;99.90;;;;;;5027501;28;20030;-62
2023/07/07 09:05:50;;;;;;;8.05;5.43;;;25.70;99.90;;;;;;5032808;28;20029;-62
2023/07/07 09:08:21;;;;;;;7.82;5.32;;;25.70;99.90;;;;;;5025222;28;20025;-61
2023/07/07 09:11:19;;;;;;;7.35;5.40;;;25.70;99.90;;;;;;5024333;28;20064;-61
2023/07/07 09:13:48;;;;;;;7.22;4.93;;;25.70;99.90;;;;;;5028572;28;20386;-61
2023/07/07 09:16:34;;;;;;;9.70;5.55;;;25.80;99.90;;;;;;5035034;28;20108;-61
2023/07/07 09:19:20;;;;;;;5.97;5.40;;;25.80;99.90;;;;;;5034078;28;20037;-61
2023/07/07 09:22:01;;;;;;;8.93;5.95;;;26.00;99.90;;;;;;5034344;28;20056;-60
2023/07/07 09:24:45;;;;;;;5.85;4.50;;;25.90;99.90;;;;;;5025781;28;20036;-61
2023/07/07 09:27:36;;;;;;;6.10;4.45;;;26.10;99.90;;;;;;5020114;28;20420;-61
2023/07/07 09:30:21;;;;;;;8.55;5.45;;;26.30;99.90;;;;;;5010947;28;20048;-60
2023/07/07 09:32:48;;;;;;;9.52;5.90;;;26.40;99.90;;;;;;5019996;28;20045;-60
2023/07/07 09:35:14;;;;;;;11.35;6.05;;;26.40;99.90;;;;;;5034709;28;20025;-60
2023/07/07 09:37:46;;;;;;;12.13;7.05;;;26.40;99.90;;;;;;5032333;28;20044;-60
2023/07/07 09:40:21;;;;;;;7.85;6.75;;;26.30;99.90;;;;;;5030526;28;20068;-60
2023/07/07 09:42:56;;;;;;;9.40;5.25;;;26.20;99.90;;;;;;5027762;28;20624;-62
2023/07/07 09:45:31;;;;;;;5.53;4.90;;;26.20;99.90;;;;;;5034259;28;20037;-63
2023/07/07 09:48:01;;;;;;;8.10;5.35;;;26.20;99.90;;;;;;5033410;28;20029;-63
2023/07/07 09:50:56;;;;;;;8.20;5.10;;;26.20;99.90;;;;;;5021840;28;20434;-63
2023/07/07 09:53:26;;;;;;;10.13;6.22;;;26.30;99.90;;;;;;5034171;28;20091;-65
2023/07/07 09:55:54;;;;;;;6.72;5.47;;;26.50;99.90;;;;;;5031762;28;20017;-65
2023/07/07 09:58:41;;;;;;;10.38;5.47;;;26.40;99.90;;;;;;5025547;28;20046;-60
2023/07/07 10:01:09;;;;;;;8.82;5.57;;;26.50;99.90;;;;;;5028271;28;20474;-60
2023/07/07 10:03:36;;;;;;;6.78;5.50;;;26.60;99.90;;;;;;5032520;28;20032;-60
2023/07/07 10:06:13;;;;;;;9.25;5.32;;;26.60;99.90;;;;;;5029911;28;20049;-67
2023/07/07 10:08:39;;;;;;;21.63;5.38;;;26.90;99.90;;;;;;5022336;28;20471;-62
2023/07/07 10:11:14;;;;;;;8.18;5.15;;;26.90;99.90;;;;;;5033379;28;20021;-65
2023/07/07 10:13:40;;;;;;;8.27;5.40;;;27.00;99.90;;;;;;5031992;28;20041;-63
2023/07/07 10:16:10;;;;;;;7.90;5.00;;;27.00;99.90;;;;;;5033390;28;20374;-60
2023/07/07 10:18:36;;;;;;;5.25;4.22;;;27.10;99.90;;;;;;5026694;28;20033;-60
2023/07/07 10:21:07;;;;;;;7.65;4.72;;;27.20;99.90;;;;;;5033430;28;20029;-60
2023/07/07 10:23:32;;;;;;;6.13;4.30;;;27.20;99.90;;;;;;5032018;28;20609;-60
2023/07/07 10:25:58;;;;;;;6.78;4.82;;;27.30;99.90;;;;;;5032842;28;20049;-63
2023/07/07 10:28:24;;;;;;;7.68;5.80;;;27.40;99.90;;;;;;5030223;28;20030;-63
2023/07/07 10:30:51;;;;;;;8.25;6.80;;;27.60;99.90;;;;;;5032154;28;20025;-64
2023/07/07 10:33:21;;;;;;;7.00;5.20;;;27.40;99.90;;;;;;5030752;28;20048;-64
2023/07/07 10:35:48;;;;;;;9.63;6.18;;;27.60;99.90;;;;;;5032813;28;20087;-62
2023/07/07 10:38:13;;;;;;;7.75;5.75;;;27.80;99.90;;;;;;5027596;28;20471;-61
2023/07/07 10:40:41;;;;;;;8.85;7.35;;;27.70;99.90;;;;;;5024459;28;20121;-64
2023/07/07 10:43:12;;;;;;;10.93;6.72;;;27.80;99.90;;;;;;5028335;28;20025;-63
2023/07/07 10:45:42;;;;;;;9.80;5.82;;;27.90;99.90;;;;;;5029960;28;20030;-63
2023/07/07 10:48:12;;;;;;;7.80;6.22;;;28.20;99.90;;;;;;5017031;28;20072;-62
2023/07/07 10:50:51;;;;;;;7.15;5.25;;;28.40;99.90;;;;;;5026792;28;20037;-63
2023/07/07 10:53:35;;;;;;;7.38;6.00;;;28.40;99.90;;;;;;5032215;28;20038;-63
2023/07/07 10:56:21;;;;;;;7.43;5.63;;;28.60;99.90;;;;;;5031577;28;20037;-62
2023/07/07 10:59:14;;;;;;;10.52;5.97;;;28.90;99.90;;;;;;5032775;28;20042;-61
2023/07/07 11:01:48;;;;;;;9.32;5.75;;;28.80;99.90;;;;;;5025695;28;20111;-62
2023/07/07 11:04:41;;;;;;;6.45;5.70;;;29.00;99.90;;;;;;5034184;28;20029;-61
2023/07/07 11:07:35;;;;;;;11.67;8.00;;;29.00;99.90;;;;;;5030193;28;20449;-61
2023/07/07 11:10:34;;;;;;;10.32;7.15;;;28.70;99.90;;;;;;5033099;28;20018;-61
2023/07/07 11:13:08;;;;;;;8.50;6.90;;;29.00;99.90;;;;;;5029375;28;20028;-61
2023/07/07 11:15:50;;;;;;;9.00;8.10;;;29.30;99.90;;;;;;5027348;28;20114;-69
2023/07/07 11:18:24;;;;;;;9.70;8.13;;;29.10;99.90;;;;;;5026846;28;20119;-61
2023/07/07 11:21:29;;;;;;;9.55;7.68;;;29.20;99.90;;;;;;5024621;28;20463;-61
2023/07/07 11:24:01;;;;;;;;;;;29.20;99.90;;;;;;5035218;28;20387;-63
2023/07/07 11:26:48;;;;;;;10.35;7.82;;;29.40;99.90;;;;;;5032705;28;19920;-63
2023/07/07 11:29:42;;;;;;;11.23;7.88;;;32.50;99.90;;;;;;5028781;28;20025;-63
2023/07/07 11:32:39;;;;;;;12.70;7.90;;;34.50;99.90;;;;;;5033033;28;20033;-62
2023/07/07 11:35:44;;;;;;;8.10;6.88;;;35.00;99.90;;;;;;5021915;28;20037;-62
2023/07/07 11:38:27;;;;;;;;;;;34.50;99.90;;;;;;5031851;28;20049;-62
2023/07/07 11:40:53;;;;;;;8.90;6.90;;;34.70;99.90;;;;;;5016374;28;19913;-62
2023/07/07 11:43:24;;;;;;;8.43;6.55;;;36.60;99.90;;;;;;5032854;28;20112;-61
2023/07/07 11:45:58;;;;;;;9.60;7.57;;;39.50;99.90;;;;;;5030984;28;20104;-62
2023/07/07 11:48:46;;;;;;;10.77;8.68;;;41.10;99.90;;;;;;5030669;28;20029;-60
2023/07/07 11:51:14;;;;;;;9.85;7.68;;;42.80;99.90;;;;;;5032242;28;20025;-61
2023/07/07 11:53:48;;;;;;;10.07;9.05;;;42.20;99.90;;;;;;5033760;28;20030;-61
2023/07/07 11:56:44;;;;;;;7.75;7.00;;;43.20;99.90;;;;;;5034864;28;20044;-61
2023/07/07 11:59:38;;;;;;;8.07;7.28;;;43.30;99.90;;;;;;5025070;28;20406;-61
2023/07/07 12:02:28;;;;;;;7.95;7.35;;;43.90;99.90;;;;;;5032868;28;20029;-61
2023/07/07 12:04:56;;;;;;;7.85;7.07;;;44.00;99.90;;;;;;5034348;28;20025;-61
2023/07/07 12:07:25;;;;;;;8.52;7.53;;;44.00;99.90;;;;;;5035433;28;20585;-61
2023/07/07 12:09:58;;;;;;;7.60;6.60;;;44.50;99.90;;;;;;5034266;28;20033;-61
2023/07/07 12:12:38;;;;;;;8.68;7.88;;;43.80;99.90;;;;;;5033190;28;20065;-61
2023/07/07 12:15:19;;;;;;;8.20;6.65;;;42.80;99.90;;;;;;5033028;28;20029;-61
2023/07/07 12:18:10;;;;;;;7.25;6.30;;;41.70;99.90;;;;;;5030131;28;20375;-61
2023/07/07 12:20:42;;;;;;;8.05;7.25;;;39.70;99.90;;;;;;5028737;28;20042;-61
2023/07/07 12:23:21;;;;;;;7.18;6.40;;;38.20;99.90;;;;;;5032436;28;20128;-61
2023/07/07 12:25:47;;;;;;;6.80;6.20;;;37.00;99.90;;;;;;5029386;28;20032;-61
2023/07/07 12:28:13;;;;;;;6.32;5.70;;;37.10;99.90;;;;;;5033926;28;20021;-61
2023/07/07 12:30:48;;;;;;;6.63;6.03;;;37.30;99.90;;;;;;5035368;28;20033;-60
2023/07/07 12:33:15;;;;;;;8.07;5.70;;;36.60;99.90;;;;;;5030734;28;20426;-61
2023/07/07 12:35:56;;;;;;;7.93;5.93;;;36.90;99.90;;;;;;5034519;28;20033;-60
2023/07/07 12:38:33;;;;;;;5.78;5.38;;;38.20;99.90;;;;;;5034220;28;20068;-61
2023/07/07 12:41:06;;;;;;;8.18;5.88;;;39.00;99.90;;;;;;5022351;28;20033;-61
2023/07/07 12:43:39;;;;;;;7.30;6.60;;;38.60;99.90;;;;;;5033576;28;20101;-60
2023/07/07 12:46:19;;;;;;;8.95;6.07;;;37.70;99.90;;;;;;5031319;28;20029;-60
2023/07/07 12:48:46;;;;;;;6.22;5.63;;;37.50;99.90;;;;;;5024187;28;20108;-61
2023/07/07 12:51:12;;;;;;;7.32;6.18;;;38.00;99.90;;;;;;5034523;28;20052;-61
2023/07/07 12:53:47;;;;;;;6.40;5.80;;;38.10;99.90;;;;;;5032216;28;20068;-61
2023/07/07 12:56:25;;;;;;;6.45;5.75;;;37.20;99.90;;;;;;5032083;28;20390;-61
2023/07/07 12:59:04;;;;;;;6.65;6.05;;;36.50;99.90;;;;;;5034540;28;20112;-61
2023/07/07 13:01:38;;;;;;;7.38;5.60;;;35.60;99.90;;;;;;5032753;28;20030;-61
2023/07/07 13:04:13;;;;;;;7.60;5.40;;;36.00;99.90;;;;;;5033600;28;20033;-61
2023/07/07 13:06:51;;;;;;;6.30;5.80;;;36.30;99.90;;;;;;5027214;28;20021;-61
2023/07/07 13:09:20;;;;;;;6.22;5.55;;;36.70;99.90;;;;;;5032891;28;20022;-61